sensor_id;sensor_type;location;lat;lon;timestamp;P1;durP1;ratioP1;P2;durP2;ratioP2
64543;SDS011;50936;51.660;5.616;2023-07-13T00:14:25;3.17;;;1.20;;
64543;SDS011;50936;51.660;5.616;2023-07-13T00:16:54;2.75;;;1.17;;
64543;SDS011;50936;51.660;5.616;2023-07-13T00:19:22;5.68;;;1.40;;
64543;SDS011;50936;51.660;5.616;2023-07-13T00:21:48;7.00;;;1.27;;
64543;SDS011;50936;51.660;5.616;2023-07-13T00:24:16;4.60;;;1.48;;
64543;SDS011;50936;51.660;5.616;2023-07-13T00:26:50;3.40;;;1.40;;
64543;SDS011;50936;51.660;5.616;2023-07-13T00:29:18;3.35;;;1.40;;
64543;SDS011;50936;51.660;5.616;2023-07-13T00:31:47;3.83;;;1.30;;
64543;SDS011;50936;51.660;5.616;2023-07-13T00:34:15;3.78;;;1.25;;
64543;SDS011;50936;51.660;5.616;2023-07-13T00:36:42;4.47;;;1.38;;
64543;SDS011;50936;51.660;5.616;2023-07-13T00:39:09;3.55;;;1.45;;
64543;SDS011;50936;51.660;5.616;2023-07-13T00:41:36;4.97;;;1.70;;
64543;SDS011;50936;51.660;5.616;2023-07-13T00:44:03;3.10;;;1.50;;
64543;SDS011;50936;51.660;5.616;2023-07-13T00:46:32;4.20;;;1.40;;
64543;SDS011;50936;51.660;5.616;2023-07-13T00:49:06;4.03;;;1.40;;
64543;SDS011;50936;51.660;5.616;2023-07-13T00:54:34;3.33;;;1.52;;
64543;SDS011;50936;51.660;5.616;2023-07-13T00:57:11;4.72;;;1.42;;
64543;SDS011;50936;51.660;5.616;2023-07-13T00:59:45;1.90;;;1.20;;
64543;SDS011;50936;51.660;5.616;2023-07-13T01:02:18;4.18;;;1.30;;
64543;SDS011;50936;51.660;5.616;2023-07-13T01:04:48;4.53;;;1.75;;
64543;SDS011;50936;51.660;5.616;2023-07-13T01:07:15;4.63;;;1.60;;
64543;SDS011;50936;51.660;5.616;2023-07-13T01:09:45;5.40;;;1.75;;
64543;SDS011;50936;51.660;5.616;2023-07-13T01:12:12;4.15;;;1.50;;
64543;SDS011;50936;51.660;5.616;2023-07-13T01:14:40;3.95;;;1.33;;
64543;SDS011;50936;51.660;5.616;2023-07-13T01:17:10;3.70;;;1.13;;
64543;SDS011;50936;51.660;5.616;2023-07-13T01:19:40;3.55;;;1.45;;
64543;SDS011;50936;51.660;5.616;2023-07-13T01:22:11;4.00;;;1.40;;
64543;SDS011;50936;51.660;5.616;2023-07-13T01:24:42;3.55;;;1.30;;
64543;SDS011;50936;51.660;5.616;2023-07-13T01:27:13;3.55;;;1.40;;
64543;SDS011;50936;51.660;5.616;2023-07-13T01:29:47;3.70;;;1.45;;
64543;SDS011;50936;51.660;5.616;2023-07-13T01:32:16;3.53;;;1.33;;
64543;SDS011;50936;51.660;5.616;2023-07-13T01:34:48;4.72;;;1.48;;
64543;SDS011;50936;51.660;5.616;2023-07-13T01:37:21;3.95;;;1.38;;
64543;SDS011;50936;51.660;5.616;2023-07-13T01:39:52;5.07;;;1.40;;
64543;SDS011;50936;51.660;5.616;2023-07-13T01:42:19;5.20;;;1.40;;
64543;SDS011;50936;51.660;5.616;2023-07-13T01:44:47;4.63;;;1.50;;
64543;SDS011;50936;51.660;5.616;2023-07-13T01:47:14;5.55;;;1.30;;
64543;SDS011;50936;51.660;5.616;2023-07-13T01:49:41;2.45;;;1.20;;
64543;SDS011;50936;51.660;5.616;2023-07-13T01:52:08;3.67;;;1.55;;
64543;SDS011;50936;51.660;5.616;2023-07-13T01:54:35;4.85;;;1.52;;
64543;SDS011;50936;51.660;5.616;2023-07-13T01:57:02;4.15;;;1.25;;
64543;SDS011;50936;51.660;5.616;2023-07-13T01:59:30;4.18;;;1.55;;
64543;SDS011;50936;51.660;5.616;2023-07-13T02:01:59;4.75;;;1.33;;
64543;SDS011;50936;51.660;5.616;2023-07-13T02:04:26;4.40;;;1.50;;
64543;SDS011;50936;51.660;5.616;2023-07-13T02:06:53;4.90;;;1.55;;
64543;SDS011;50936;51.660;5.616;2023-07-13T02:09:21;2.70;;;1.23;;
64543;SDS011;50936;51.660;5.616;2023-07-13T02:11:49;5.70;;;1.70;;
64543;SDS011;50936;51.660;5.616;2023-07-13T02:14:16;4.03;;;1.35;;
64543;SDS011;50936;51.660;5.616;2023-07-13T02:16:43;4.72;;;1.38;;
64543;SDS011;50936;51.660;5.616;2023-07-13T02:19:10;4.43;;;1.38;;
64543;SDS011;50936;51.660;5.616;2023-07-13T02:21:37;6.13;;;1.40;;
64543;SDS011;50936;51.660;5.616;2023-07-13T02:24:04;6.43;;;1.70;;
64543;SDS011;50936;51.660;5.616;2023-07-13T02:26:31;4.25;;;1.45;;
64543;SDS011;50936;51.660;5.616;2023-07-13T02:28:58;5.05;;;1.67;;
64543;SDS011;50936;51.660;5.616;2023-07-13T02:31:25;4.60;;;1.52;;
64543;SDS011;50936;51.660;5.616;2023-07-13T02:33:53;4.25;;;1.45;;
64543;SDS011;50936;51.660;5.616;2023-07-13T02:36:20;4.68;;;1.50;;
64543;SDS011;50936;51.660;5.616;2023-07-13T02:38:49;4.43;;;1.45;;
64543;SDS011;50936;51.660;5.616;2023-07-13T02:41:17;6.13;;;1.60;;
64543;SDS011;50936;51.660;5.616;2023-07-13T02:43:45;5.15;;;1.48;;
64543;SDS011;50936;51.660;5.616;2023-07-13T02:46:13;4.50;;;1.55;;
64543;SDS011;50936;51.660;5.616;2023-07-13T02:48:40;4.95;;;1.70;;
64543;SDS011;50936;51.660;5.616;2023-07-13T02:51:07;3.78;;;1.42;;
64543;SDS011;50936;51.660;5.616;2023-07-13T02:53:35;5.50;;;1.80;;
64543;SDS011;50936;51.660;5.616;2023-07-13T02:56:04;3.53;;;1.63;;
64543;SDS011;50936;51.660;5.616;2023-07-13T02:58:32;5.28;;;1.80;;
64543;SDS011;50936;51.660;5.616;2023-07-13T03:01:05;4.15;;;1.63;;
64543;SDS011;50936;51.660;5.616;2023-07-13T03:03:37;3.50;;;1.50;;
64543;SDS011;50936;51.660;5.616;2023-07-13T03:06:05;3.40;;;1.40;;
64543;SDS011;50936;51.660;5.616;2023-07-13T03:08:41;3.80;;;1.55;;
64543;SDS011;50936;51.660;5.616;2023-07-13T03:11:10;4.28;;;1.60;;
64543;SDS011;50936;51.660;5.616;2023-07-13T03:13:43;6.28;;;1.50;;
64543;SDS011;50936;51.660;5.616;2023-07-13T03:16:12;4.38;;;1.60;;
64543;SDS011;50936;51.660;5.616;2023-07-13T03:18:46;7.43;;;1.77;;
64543;SDS011;50936;51.660;5.616;2023-07-13T03:21:15;5.43;;;1.83;;
64543;SDS011;50936;51.660;5.616;2023-07-13T03:23:43;4.38;;;1.42;;
64543;SDS011;50936;51.660;5.616;2023-07-13T03:26:14;4.97;;;1.65;;
64543;SDS011;50936;51.660;5.616;2023-07-13T03:28:45;5.47;;;1.60;;
64543;SDS011;50936;51.660;5.616;2023-07-13T03:31:19;5.65;;;1.60;;
64543;SDS011;50936;51.660;5.616;2023-07-13T03:33:50;4.53;;;1.50;;
64543;SDS011;50936;51.660;5.616;2023-07-13T03:36:23;4.43;;;1.50;;
64543;SDS011;50936;51.660;5.616;2023-07-13T03:38:57;4.00;;;1.70;;
64543;SDS011;50936;51.660;5.616;2023-07-13T03:41:35;4.85;;;1.45;;
64543;SDS011;50936;51.660;5.616;2023-07-13T03:44:02;5.00;;;1.48;;
64543;SDS011;50936;51.660;5.616;2023-07-13T03:46:30;4.70;;;1.67;;
64543;SDS011;50936;51.660;5.616;2023-07-13T03:48:58;5.35;;;1.60;;
64543;SDS011;50936;51.660;5.616;2023-07-13T03:51:25;3.05;;;1.38;;
64543;SDS011;50936;51.660;5.616;2023-07-13T03:53:52;3.95;;;1.50;;
64543;SDS011;50936;51.660;5.616;2023-07-13T03:56:20;6.53;;;1.45;;
64543;SDS011;50936;51.660;5.616;2023-07-13T03:58:48;4.22;;;1.40;;
64543;SDS011;50936;51.660;5.616;2023-07-13T04:01:19;4.53;;;1.45;;
64543;SDS011;50936;51.660;5.616;2023-07-13T04:03:48;4.88;;;1.60;;
64543;SDS011;50936;51.660;5.616;2023-07-13T04:06:18;5.03;;;1.52;;
64543;SDS011;50936;51.660;5.616;2023-07-13T04:08:52;5.30;;;1.45;;
64543;SDS011;50936;51.660;5.616;2023-07-13T04:11:25;5.32;;;1.70;;
64543;SDS011;50936;51.660;5.616;2023-07-13T04:13:55;6.00;;;1.70;;
64543;SDS011;50936;51.660;5.616;2023-07-13T04:16:23;4.18;;;1.60;;
64543;SDS011;50936;51.660;5.616;2023-07-13T04:18:51;7.10;;;1.75;;
64543;SDS011;50936;51.660;5.616;2023-07-13T04:21:29;5.18;;;1.70;;
64543;SDS011;50936;51.660;5.616;2023-07-13T04:23:57;3.85;;;1.27;;
64543;SDS011;50936;51.660;5.616;2023-07-13T04:26:25;6.32;;;1.73;;
64543;SDS011;50936;51.660;5.616;2023-07-13T04:28:52;4.60;;;1.77;;
64543;SDS011;50936;51.660;5.616;2023-07-13T04:31:19;4.32;;;1.67;;
64543;SDS011;50936;51.660;5.616;2023-07-13T04:33:48;6.80;;;1.70;;
64543;SDS011;50936;51.660;5.616;2023-07-13T04:36:15;6.07;;;1.90;;
64543;SDS011;50936;51.660;5.616;2023-07-13T04:38:43;8.35;;;2.50;;
64543;SDS011;50936;51.660;5.616;2023-07-13T04:41:11;7.65;;;2.50;;
64543;SDS011;50936;51.660;5.616;2023-07-13T04:43:39;7.40;;;2.70;;
64543;SDS011;50936;51.660;5.616;2023-07-13T04:46:07;6.68;;;2.25;;
64543;SDS011;50936;51.660;5.616;2023-07-13T04:48:39;6.68;;;2.10;;
64543;SDS011;50936;51.660;5.616;2023-07-13T04:51:06;9.45;;;2.45;;
64543;SDS011;50936;51.660;5.616;2023-07-13T04:53:34;8.13;;;2.67;;
64543;SDS011;50936;51.660;5.616;2023-07-13T04:56:02;10.23;;;2.90;;
64543;SDS011;50936;51.660;5.616;2023-07-13T04:58:30;13.90;;;3.47;;
64543;SDS011;50936;51.660;5.616;2023-07-13T05:01:01;11.15;;;3.25;;
64543;SDS011;50936;51.660;5.616;2023-07-13T05:03:30;10.48;;;3.25;;
64543;SDS011;50936;51.660;5.616;2023-07-13T05:06:02;12.07;;;3.60;;
64543;SDS011;50936;51.660;5.616;2023-07-13T05:08:33;11.82;;;3.42;;
64543;SDS011;50936;51.660;5.616;2023-07-13T05:11:00;11.63;;;4.05;;
64543;SDS011;50936;51.660;5.616;2023-07-13T05:13:29;10.33;;;4.37;;
64543;SDS011;50936;51.660;5.616;2023-07-13T05:16:01;9.80;;;4.32;;
64543;SDS011;50936;51.660;5.616;2023-07-13T05:18:30;14.18;;;4.68;;
64543;SDS011;50936;51.660;5.616;2023-07-13T05:20:59;14.25;;;4.22;;
64543;SDS011;50936;51.660;5.616;2023-07-13T05:23:34;14.00;;;4.72;;
64543;SDS011;50936;51.660;5.616;2023-07-13T05:26:03;16.17;;;4.55;;
64543;SDS011;50936;51.660;5.616;2023-07-13T05:28:35;14.50;;;5.55;;
64543;SDS011;50936;51.660;5.616;2023-07-13T05:31:03;14.43;;;5.60;;
64543;SDS011;50936;51.660;5.616;2023-07-13T05:33:31;21.90;;;6.65;;
64543;SDS011;50936;51.660;5.616;2023-07-13T05:35:58;17.30;;;5.70;;
64543;SDS011;50936;51.660;5.616;2023-07-13T05:38:27;15.80;;;5.93;;
64543;SDS011;50936;51.660;5.616;2023-07-13T05:40:56;19.77;;;6.88;;
64543;SDS011;50936;51.660;5.616;2023-07-13T05:43:24;21.35;;;5.65;;
64543;SDS011;50936;51.660;5.616;2023-07-13T05:45:55;19.40;;;7.38;;
64543;SDS011;50936;51.660;5.616;2023-07-13T05:48:23;17.15;;;6.25;;
64543;SDS011;50936;51.660;5.616;2023-07-13T05:50:50;15.70;;;6.72;;
64543;SDS011;50936;51.660;5.616;2023-07-13T05:53:17;19.48;;;7.15;;
64543;SDS011;50936;51.660;5.616;2023-07-13T05:55:45;18.42;;;6.95;;
64543;SDS011;50936;51.660;5.616;2023-07-13T05:58:16;18.90;;;7.18;;
64543;SDS011;50936;51.660;5.616;2023-07-13T06:00:44;19.63;;;7.32;;
64543;SDS011;50936;51.660;5.616;2023-07-13T06:03:13;17.90;;;7.97;;
64543;SDS011;50936;51.660;5.616;2023-07-13T06:05:41;14.75;;;7.13;;
64543;SDS011;50936;51.660;5.616;2023-07-13T06:08:08;19.27;;;8.20;;
64543;SDS011;50936;51.660;5.616;2023-07-13T06:10:35;24.75;;;8.27;;
64543;SDS011;50936;51.660;5.616;2023-07-13T06:13:03;17.88;;;7.93;;
64543;SDS011;50936;51.660;5.616;2023-07-13T06:15:30;20.38;;;8.35;;
64543;SDS011;50936;51.660;5.616;2023-07-13T06:17:57;28.50;;;8.90;;
64543;SDS011;50936;51.660;5.616;2023-07-13T06:20:24;22.75;;;8.77;;
64543;SDS011;50936;51.660;5.616;2023-07-13T06:22:51;21.08;;;7.10;;
64543;SDS011;50936;51.660;5.616;2023-07-13T06:25:18;18.90;;;8.57;;
64543;SDS011;50936;51.660;5.616;2023-07-13T06:27:45;22.13;;;9.13;;
64543;SDS011;50936;51.660;5.616;2023-07-13T06:30:12;21.00;;;8.27;;
64543;SDS011;50936;51.660;5.616;2023-07-13T06:32:39;21.85;;;7.78;;
64543;SDS011;50936;51.660;5.616;2023-07-13T06:35:07;19.83;;;8.00;;
64543;SDS011;50936;51.660;5.616;2023-07-13T06:37:34;21.25;;;8.55;;
64543;SDS011;50936;51.660;5.616;2023-07-13T06:40:02;21.08;;;8.25;;
64543;SDS011;50936;51.660;5.616;2023-07-13T06:42:30;23.83;;;8.68;;
64543;SDS011;50936;51.660;5.616;2023-07-13T06:44:57;24.85;;;9.27;;
64543;SDS011;50936;51.660;5.616;2023-07-13T06:47:24;21.20;;;7.88;;
64543;SDS011;50936;51.660;5.616;2023-07-13T06:49:51;19.70;;;8.50;;
64543;SDS011;50936;51.660;5.616;2023-07-13T06:52:18;23.15;;;9.05;;
64543;SDS011;50936;51.660;5.616;2023-07-13T06:54:45;23.27;;;8.40;;
64543;SDS011;50936;51.660;5.616;2023-07-13T06:57:12;15.55;;;7.50;;
64543;SDS011;50936;51.660;5.616;2023-07-13T06:59:39;18.90;;;7.90;;
64543;SDS011;50936;51.660;5.616;2023-07-13T07:02:07;18.00;;;7.80;;
64543;SDS011;50936;51.660;5.616;2023-07-13T07:04:37;16.80;;;7.72;;
64543;SDS011;50936;51.660;5.616;2023-07-13T07:07:04;16.92;;;8.32;;
64543;SDS011;50936;51.660;5.616;2023-07-13T07:09:33;19.00;;;8.30;;
64543;SDS011;50936;51.660;5.616;2023-07-13T07:12:00;18.33;;;8.00;;
64543;SDS011;50936;51.660;5.616;2023-07-13T07:14:30;16.65;;;7.35;;
64543;SDS011;50936;51.660;5.616;2023-07-13T07:16:57;17.63;;;8.27;;
64543;SDS011;50936;51.660;5.616;2023-07-13T07:19:25;22.52;;;8.82;;
64543;SDS011;50936;51.660;5.616;2023-07-13T07:21:55;20.70;;;9.02;;
64543;SDS011;50936;51.660;5.616;2023-07-13T07:24:22;16.73;;;7.68;;
64543;SDS011;50936;51.660;5.616;2023-07-13T07:26:49;14.93;;;6.88;;
64543;SDS011;50936;51.660;5.616;2023-07-13T07:29:19;13.15;;;6.30;;
64543;SDS011;50936;51.660;5.616;2023-07-13T07:31:50;12.13;;;6.18;;
64543;SDS011;50936;51.660;5.616;2023-07-13T07:34:31;13.45;;;5.63;;
64543;SDS011;50936;51.660;5.616;2023-07-13T07:37:01;15.10;;;6.35;;
64543;SDS011;50936;51.660;5.616;2023-07-13T07:39:31;11.10;;;5.85;;
64543;SDS011;50936;51.660;5.616;2023-07-13T07:41:58;12.20;;;5.82;;
64543;SDS011;50936;51.660;5.616;2023-07-13T07:44:26;15.00;;;6.55;;
64543;SDS011;50936;51.660;5.616;2023-07-13T07:46:53;13.70;;;5.50;;
64543;SDS011;50936;51.660;5.616;2023-07-13T07:49:21;14.30;;;6.00;;
64543;SDS011;50936;51.660;5.616;2023-07-13T07:51:48;17.33;;;6.38;;
64543;SDS011;50936;51.660;5.616;2023-07-13T07:54:15;11.68;;;5.93;;
64543;SDS011;50936;51.660;5.616;2023-07-13T07:57:02;11.77;;;5.88;;
64543;SDS011;50936;51.660;5.616;2023-07-13T07:59:33;15.27;;;5.80;;
64543;SDS011;50936;51.660;5.616;2023-07-13T08:02:03;13.10;;;5.60;;
64543;SDS011;50936;51.660;5.616;2023-07-13T08:04:33;11.48;;;5.45;;
64543;SDS011;50936;51.660;5.616;2023-07-13T08:07:03;11.45;;;5.47;;
64543;SDS011;50936;51.660;5.616;2023-07-13T08:09:30;13.38;;;5.15;;
64543;SDS011;50936;51.660;5.616;2023-07-13T08:11:57;13.82;;;6.07;;
64543;SDS011;50936;51.660;5.616;2023-07-13T08:14:27;12.65;;;5.60;;
64543;SDS011;50936;51.660;5.616;2023-07-13T08:17:12;11.55;;;5.93;;
64543;SDS011;50936;51.660;5.616;2023-07-13T08:19:39;12.52;;;6.18;;
64543;SDS011;50936;51.660;5.616;2023-07-13T08:22:06;11.82;;;5.72;;
64543;SDS011;50936;51.660;5.616;2023-07-13T08:24:33;14.15;;;6.15;;
64543;SDS011;50936;51.660;5.616;2023-07-13T08:27:00;10.75;;;5.28;;
64543;SDS011;50936;51.660;5.616;2023-07-13T08:29:27;15.07;;;6.10;;
64543;SDS011;50936;51.660;5.616;2023-07-13T08:31:54;11.32;;;5.80;;
64543;SDS011;50936;51.660;5.616;2023-07-13T08:34:21;9.95;;;5.05;;
64543;SDS011;50936;51.660;5.616;2023-07-13T08:36:48;13.63;;;5.30;;
64543;SDS011;50936;51.660;5.616;2023-07-13T08:39:15;12.82;;;5.53;;
64543;SDS011;50936;51.660;5.616;2023-07-13T08:41:42;10.40;;;5.13;;
64543;SDS011;50936;51.660;5.616;2023-07-13T08:44:24;12.15;;;5.43;;
64543;SDS011;50936;51.660;5.616;2023-07-13T08:47:24;10.10;;;5.25;;
64543;SDS011;50936;51.660;5.616;2023-07-13T08:49:55;14.88;;;4.82;;
64543;SDS011;50936;51.660;5.616;2023-07-13T08:52:31;9.80;;;4.90;;
64543;SDS011;50936;51.660;5.616;2023-07-13T08:55:11;8.05;;;4.93;;
64543;SDS011;50936;51.660;5.616;2023-07-13T08:57:43;9.63;;;5.03;;
64543;SDS011;50936;51.660;5.616;2023-07-13T09:03:25;11.18;;;4.95;;
64543;SDS011;50936;51.660;5.616;2023-07-13T09:06:20;9.77;;;5.20;;
64543;SDS011;50936;51.660;5.616;2023-07-13T09:09:15;9.55;;;4.20;;
64543;SDS011;50936;51.660;5.616;2023-07-13T09:12:27;10.80;;;4.72;;
64543;SDS011;50936;51.660;5.616;2023-07-13T09:15:02;9.35;;;4.43;;
64543;SDS011;50936;51.660;5.616;2023-07-13T09:17:41;9.35;;;4.82;;
64543;SDS011;50936;51.660;5.616;2023-07-13T09:20:21;9.48;;;4.78;;
64543;SDS011;50936;51.660;5.616;2023-07-13T09:22:56;9.07;;;4.72;;
64543;SDS011;50936;51.660;5.616;2023-07-13T09:25:30;6.32;;;4.15;;
64543;SDS011;50936;51.660;5.616;2023-07-13T09:28:11;7.78;;;4.55;;
64543;SDS011;50936;51.660;5.616;2023-07-13T09:30:50;10.85;;;4.68;;
64543;SDS011;50936;51.660;5.616;2023-07-13T09:33:25;7.35;;;4.40;;
64543;SDS011;50936;51.660;5.616;2023-07-13T09:35:58;9.95;;;4.82;;
64543;SDS011;50936;51.660;5.616;2023-07-13T09:38:27;9.13;;;4.85;;
64543;SDS011;50936;51.660;5.616;2023-07-13T09:40:59;7.68;;;4.38;;
64543;SDS011;50936;51.660;5.616;2023-07-13T09:44:02;7.00;;;3.65;;
64543;SDS011;50936;51.660;5.616;2023-07-13T09:46:38;8.57;;;4.47;;
64543;SDS011;50936;51.660;5.616;2023-07-13T09:49:12;7.97;;;4.32;;
64543;SDS011;50936;51.660;5.616;2023-07-13T09:51:42;9.85;;;4.38;;
64543;SDS011;50936;51.660;5.616;2023-07-13T09:54:17;7.60;;;4.03;;
64543;SDS011;50936;51.660;5.616;2023-07-13T09:56:48;8.98;;;4.20;;
64543;SDS011;50936;51.660;5.616;2023-07-13T09:59:27;6.85;;;4.25;;
64543;SDS011;50936;51.660;5.616;2023-07-13T10:02:01;6.70;;;3.75;;
64543;SDS011;50936;51.660;5.616;2023-07-13T10:04:32;6.25;;;4.18;;
64543;SDS011;50936;51.660;5.616;2023-07-13T10:07:07;8.43;;;4.22;;
64543;SDS011;50936;51.660;5.616;2023-07-13T10:10:00;6.65;;;3.80;;
64543;SDS011;50936;51.660;5.616;2023-07-13T10:12:29;11.43;;;6.53;;
64543;SDS011;50936;51.660;5.616;2023-07-13T10:15:03;24.30;;;9.93;;
64543;SDS011;50936;51.660;5.616;2023-07-13T10:17:50;24.77;;;11.20;;
64543;SDS011;50936;51.660;5.616;2023-07-13T10:20:22;28.40;;;11.88;;
64543;SDS011;50936;51.660;5.616;2023-07-13T10:22:50;21.63;;;10.48;;
64543;SDS011;50936;51.660;5.616;2023-07-13T10:25:37;25.50;;;9.63;;
64543;SDS011;50936;51.660;5.616;2023-07-13T10:28:31;22.20;;;10.82;;
64543;SDS011;50936;51.660;5.616;2023-07-13T10:31:04;27.98;;;10.82;;
64543;SDS011;50936;51.660;5.616;2023-07-13T10:33:40;22.15;;;9.52;;
64543;SDS011;50936;51.660;5.616;2023-07-13T10:36:18;19.40;;;9.30;;
64543;SDS011;50936;51.660;5.616;2023-07-13T10:38:57;18.88;;;8.18;;
64543;SDS011;50936;51.660;5.616;2023-07-13T10:41:30;23.13;;;8.98;;
64543;SDS011;50936;51.660;5.616;2023-07-13T10:44:03;20.15;;;8.63;;
64543;SDS011;50936;51.660;5.616;2023-07-13T10:46:37;16.70;;;8.00;;
64543;SDS011;50936;51.660;5.616;2023-07-13T10:49:05;18.55;;;8.63;;
64543;SDS011;50936;51.660;5.616;2023-07-13T10:51:37;17.80;;;8.30;;
64543;SDS011;50936;51.660;5.616;2023-07-13T10:54:11;16.85;;;7.93;;
64543;SDS011;50936;51.660;5.616;2023-07-13T10:56:49;20.98;;;9.23;;
64543;SDS011;50936;51.660;5.616;2023-07-13T10:59:39;18.80;;;8.68;;
64543;SDS011;50936;51.660;5.616;2023-07-13T11:04:41;19.63;;;9.02;;
64543;SDS011;50936;51.660;5.616;2023-07-13T11:09:56;17.08;;;8.48;;
64543;SDS011;50936;51.660;5.616;2023-07-13T11:12:48;17.48;;;8.05;;
64543;SDS011;50936;51.660;5.616;2023-07-13T11:15:32;16.13;;;8.30;;
64543;SDS011;50936;51.660;5.616;2023-07-13T11:18:19;18.88;;;8.13;;
64543;SDS011;50936;51.660;5.616;2023-07-13T11:20:50;17.95;;;7.70;;
64543;SDS011;50936;51.660;5.616;2023-07-13T11:23:19;14.48;;;7.63;;
64543;SDS011;50936;51.660;5.616;2023-07-13T11:25:56;18.45;;;8.57;;
64543;SDS011;50936;51.660;5.616;2023-07-13T11:28:24;17.63;;;7.55;;
64543;SDS011;50936;51.660;5.616;2023-07-13T11:38:27;15.18;;;7.20;;
64543;SDS011;50936;51.660;5.616;2023-07-13T11:40:59;11.52;;;6.93;;
64543;SDS011;50936;51.660;5.616;2023-07-13T11:43:31;15.43;;;6.55;;
64543;SDS011;50936;51.660;5.616;2023-07-13T11:49:00;10.98;;;6.53;;
64543;SDS011;50936;51.660;5.616;2023-07-13T11:51:30;14.52;;;7.55;;
64543;SDS011;50936;51.660;5.616;2023-07-13T11:54:06;16.20;;;6.97;;
64543;SDS011;50936;51.660;5.616;2023-07-13T11:57:12;12.73;;;6.72;;
64543;SDS011;50936;51.660;5.616;2023-07-13T12:00:00;14.93;;;7.10;;
64543;SDS011;50936;51.660;5.616;2023-07-13T12:02:46;11.77;;;6.47;;
64543;SDS011;50936;51.660;5.616;2023-07-13T12:05:18;12.45;;;6.88;;
64543;SDS011;50936;51.660;5.616;2023-07-13T12:07:47;11.93;;;6.65;;
64543;SDS011;50936;51.660;5.616;2023-07-13T12:10:26;16.80;;;6.85;;
64543;SDS011;50936;51.660;5.616;2023-07-13T12:12:56;10.25;;;6.22;;
64543;SDS011;50936;51.660;5.616;2023-07-13T12:15:40;13.65;;;7.20;;
64543;SDS011;50936;51.660;5.616;2023-07-13T12:18:30;11.38;;;6.30;;
64543;SDS011;50936;51.660;5.616;2023-07-13T12:21:00;10.43;;;6.53;;
64543;SDS011;50936;51.660;5.616;2023-07-13T12:23:33;12.10;;;6.28;;
64543;SDS011;50936;51.660;5.616;2023-07-13T12:26:03;11.02;;;6.32;;
64543;SDS011;50936;51.660;5.616;2023-07-13T12:28:36;12.75;;;6.40;;
64543;SDS011;50936;51.660;5.616;2023-07-13T12:31:29;11.43;;;6.45;;
64543;SDS011;50936;51.660;5.616;2023-07-13T12:34:03;14.13;;;6.43;;
64543;SDS011;50936;51.660;5.616;2023-07-13T12:36:44;12.45;;;6.18;;
64543;SDS011;50936;51.660;5.616;2023-07-13T12:39:36;12.30;;;5.93;;
64543;SDS011;50936;51.660;5.616;2023-07-13T12:42:25;11.35;;;5.90;;
64543;SDS011;50936;51.660;5.616;2023-07-13T12:45:05;12.90;;;6.25;;
64543;SDS011;50936;51.660;5.616;2023-07-13T12:48:25;8.98;;;5.53;;
64543;SDS011;50936;51.660;5.616;2023-07-13T12:51:02;12.57;;;5.95;;
64543;SDS011;50936;51.660;5.616;2023-07-13T12:53:29;10.00;;;5.78;;
64543;SDS011;50936;51.660;5.616;2023-07-13T12:55:59;10.45;;;5.68;;
64543;SDS011;50936;51.660;5.616;2023-07-13T12:58:39;11.25;;;5.97;;
64543;SDS011;50936;51.660;5.616;2023-07-13T13:01:09;10.75;;;5.97;;
64543;SDS011;50936;51.660;5.616;2023-07-13T13:03:41;11.90;;;5.43;;
64543;SDS011;50936;51.660;5.616;2023-07-13T13:08:48;9.10;;;5.10;;
64543;SDS011;50936;51.660;5.616;2023-07-13T13:11:19;10.35;;;5.95;;
64543;SDS011;50936;51.660;5.616;2023-07-13T13:13:50;10.90;;;5.43;;
64543;SDS011;50936;51.660;5.616;2023-07-13T13:16:26;9.85;;;5.55;;
64543;SDS011;50936;51.660;5.616;2023-07-13T13:18:59;10.35;;;5.68;;
64543;SDS011;50936;51.660;5.616;2023-07-13T13:21:40;10.77;;;5.20;;
64543;SDS011;50936;51.660;5.616;2023-07-13T13:24:16;9.43;;;5.65;;
64543;SDS011;50936;51.660;5.616;2023-07-13T13:26:47;8.45;;;4.22;;
64543;SDS011;50936;51.660;5.616;2023-07-13T13:29:17;8.00;;;3.95;;
64543;SDS011;50936;51.660;5.616;2023-07-13T13:31:47;6.65;;;4.13;;
64543;SDS011;50936;51.660;5.616;2023-07-13T13:34:16;5.53;;;3.13;;
64543;SDS011;50936;51.660;5.616;2023-07-13T13:36:46;8.15;;;3.22;;
64543;SDS011;50936;51.660;5.616;2023-07-13T13:41:51;7.35;;;2.58;;
64543;SDS011;50936;51.660;5.616;2023-07-13T13:44:20;5.95;;;2.60;;
64543;SDS011;50936;51.660;5.616;2023-07-13T13:46:49;7.15;;;2.60;;
64543;SDS011;50936;51.660;5.616;2023-07-13T13:49:24;7.68;;;3.17;;
64543;SDS011;50936;51.660;5.616;2023-07-13T13:51:53;5.85;;;2.65;;
64543;SDS011;50936;51.660;5.616;2023-07-13T13:54:21;6.07;;;2.28;;
64543;SDS011;50936;51.660;5.616;2023-07-13T13:56:52;5.43;;;2.72;;
64543;SDS011;50936;51.660;5.616;2023-07-13T13:59:19;6.20;;;2.30;;
64543;SDS011;50936;51.660;5.616;2023-07-13T14:01:47;6.50;;;2.58;;
64543;SDS011;50936;51.660;5.616;2023-07-13T14:04:17;7.65;;;2.55;;
64543;SDS011;50936;51.660;5.616;2023-07-13T14:06:46;6.57;;;2.60;;
64543;SDS011;50936;51.660;5.616;2023-07-13T14:09:15;7.00;;;2.90;;
64543;SDS011;50936;51.660;5.616;2023-07-13T14:11:46;8.13;;;2.55;;
64543;SDS011;50936;51.660;5.616;2023-07-13T14:14:19;5.93;;;2.45;;
64543;SDS011;50936;51.660;5.616;2023-07-13T14:16:53;5.60;;;2.40;;
64543;SDS011;50936;51.660;5.616;2023-07-13T14:19:23;4.70;;;2.60;;
64543;SDS011;50936;51.660;5.616;2023-07-13T14:21:50;5.40;;;2.42;;
64543;SDS011;50936;51.660;5.616;2023-07-13T14:24:20;5.22;;;2.60;;
64543;SDS011;50936;51.660;5.616;2023-07-13T14:26:48;6.55;;;2.38;;
64543;SDS011;50936;51.660;5.616;2023-07-13T14:29:16;5.05;;;2.55;;
64543;SDS011;50936;51.660;5.616;2023-07-13T14:31:50;4.95;;;2.33;;
64543;SDS011;50936;51.660;5.616;2023-07-13T14:34:17;5.88;;;2.50;;
64543;SDS011;50936;51.660;5.616;2023-07-13T14:36:45;4.22;;;2.20;;
64543;SDS011;50936;51.660;5.616;2023-07-13T14:41:49;5.40;;;2.10;;
64543;SDS011;50936;51.660;5.616;2023-07-13T14:44:25;6.55;;;2.28;;
64543;SDS011;50936;51.660;5.616;2023-07-13T14:46:56;5.85;;;2.30;;
64543;SDS011;50936;51.660;5.616;2023-07-13T14:54:53;4.40;;;2.28;;
64543;SDS011;50936;51.660;5.616;2023-07-13T14:57:20;5.50;;;2.15;;
64543;SDS011;50936;51.660;5.616;2023-07-13T14:59:47;4.18;;;2.00;;
64543;SDS011;50936;51.660;5.616;2023-07-13T15:04:44;3.75;;;2.10;;
64543;SDS011;50936;51.660;5.616;2023-07-13T15:07:12;9.82;;;2.30;;
64543;SDS011;50936;51.660;5.616;2023-07-13T15:09:42;4.85;;;2.20;;
64543;SDS011;50936;51.660;5.616;2023-07-13T15:12:09;3.97;;;1.88;;
64543;SDS011;50936;51.660;5.616;2023-07-13T15:14:36;4.45;;;1.90;;
64543;SDS011;50936;51.660;5.616;2023-07-13T15:17:03;5.45;;;2.30;;
64543;SDS011;50936;51.660;5.616;2023-07-13T15:19:31;4.63;;;2.17;;
64543;SDS011;50936;51.660;5.616;2023-07-13T15:21:58;3.78;;;2.17;;
64543;SDS011;50936;51.660;5.616;2023-07-13T15:24:25;5.18;;;2.10;;
64543;SDS011;50936;51.660;5.616;2023-07-13T15:26:53;3.85;;;2.05;;
64543;SDS011;50936;51.660;5.616;2023-07-13T15:29:20;4.70;;;2.20;;
64543;SDS011;50936;51.660;5.616;2023-07-13T15:31:47;5.35;;;2.05;;
64543;SDS011;50936;51.660;5.616;2023-07-13T15:34:15;5.97;;;1.77;;
64543;SDS011;50936;51.660;5.616;2023-07-13T15:36:47;3.78;;;2.10;;
64543;SDS011;50936;51.660;5.616;2023-07-13T15:39:15;4.80;;;1.90;;
64543;SDS011;50936;51.660;5.616;2023-07-13T15:41:44;5.55;;;2.30;;
64543;SDS011;50936;51.660;5.616;2023-07-13T15:44:25;4.10;;;1.92;;
64543;SDS011;50936;51.660;5.616;2023-07-13T15:46:57;4.88;;;2.20;;
64543;SDS011;50936;51.660;5.616;2023-07-13T15:49:27;3.65;;;1.80;;
64543;SDS011;50936;51.660;5.616;2023-07-13T15:51:54;5.13;;;2.10;;
64543;SDS011;50936;51.660;5.616;2023-07-13T15:54:21;5.45;;;2.10;;
64543;SDS011;50936;51.660;5.616;2023-07-13T15:56:52;4.07;;;1.83;;